sensor_id;sensor_type;location;lat;lon;timestamp;P1;durP1;ratioP1;P2;durP2;ratioP2
45338;SDS011;31071;51.478;5.710;2023-11-19T00:01:49;20.05;;;13.20;;
45338;SDS011;31071;51.478;5.710;2023-11-19T00:04:18;20.52;;;13.15;;
45338;SDS011;31071;51.478;5.710;2023-11-19T00:06:44;20.00;;;12.77;;
45338;SDS011;31071;51.478;5.710;2023-11-19T00:09:10;17.45;;;12.38;;
45338;SDS011;31071;51.478;5.710;2023-11-19T00:11:36;17.27;;;11.82;;
45338;SDS011;31071;51.478;5.710;2023-11-19T00:14:02;18.65;;;11.65;;
45338;SDS011;31071;51.478;5.710;2023-11-19T00:16:33;18.45;;;10.43;;
45338;SDS011;31071;51.478;5.710;2023-11-19T00:18:59;19.08;;;10.25;;
45338;SDS011;31071;51.478;5.710;2023-11-19T00:21:25;13.45;;;8.95;;
45338;SDS011;31071;51.478;5.710;2023-11-19T00:23:54;10.88;;;7.85;;
45338;SDS011;31071;51.478;5.710;2023-11-19T00:26:22;13.52;;;8.18;;
45338;SDS011;31071;51.478;5.710;2023-11-19T00:28:48;12.55;;;7.57;;
45338;SDS011;31071;51.478;5.710;2023-11-19T00:31:14;14.77;;;7.82;;
45338;SDS011;31071;51.478;5.710;2023-11-19T00:33:40;11.07;;;6.38;;
45338;SDS011;31071;51.478;5.710;2023-11-19T00:36:06;9.85;;;6.80;;
45338;SDS011;31071;51.478;5.710;2023-11-19T00:38:32;10.13;;;6.00;;
45338;SDS011;31071;51.478;5.710;2023-11-19T00:40:57;9.02;;;5.28;;
45338;SDS011;31071;51.478;5.710;2023-11-19T00:43:23;8.82;;;4.82;;
45338;SDS011;31071;51.478;5.710;2023-11-19T00:45:49;10.77;;;5.18;;
45338;SDS011;31071;51.478;5.710;2023-11-19T00:48:16;11.98;;;4.78;;
45338;SDS011;31071;51.478;5.710;2023-11-19T00:50:42;8.63;;;4.10;;
45338;SDS011;31071;51.478;5.710;2023-11-19T00:53:10;8.07;;;4.35;;
45338;SDS011;31071;51.478;5.710;2023-11-19T00:55:36;8.95;;;4.20;;
45338;SDS011;31071;51.478;5.710;2023-11-19T00:58:04;7.10;;;4.20;;
45338;SDS011;31071;51.478;5.710;2023-11-19T01:00:30;11.65;;;4.13;;
45338;SDS011;31071;51.478;5.710;2023-11-19T01:02:57;9.23;;;3.65;;
45338;SDS011;31071;51.478;5.710;2023-11-19T01:05:23;9.65;;;3.58;;
45338;SDS011;31071;51.478;5.710;2023-11-19T01:07:49;10.50;;;4.05;;
45338;SDS011;31071;51.478;5.710;2023-11-19T01:10:17;9.30;;;3.70;;
45338;SDS011;31071;51.478;5.710;2023-11-19T01:12:43;8.02;;;4.15;;
45338;SDS011;31071;51.478;5.710;2023-11-19T01:15:09;9.10;;;4.00;;
45338;SDS011;31071;51.478;5.710;2023-11-19T01:17:38;8.52;;;3.53;;
45338;SDS011;31071;51.478;5.710;2023-11-19T01:20:04;12.88;;;4.38;;
45338;SDS011;31071;51.478;5.710;2023-11-19T01:22:37;10.95;;;4.18;;
45338;SDS011;31071;51.478;5.710;2023-11-19T01:25:03;12.73;;;4.47;;
45338;SDS011;31071;51.478;5.710;2023-11-19T01:27:30;10.95;;;4.05;;
45338;SDS011;31071;51.478;5.710;2023-11-19T01:29:59;12.88;;;4.20;;
45338;SDS011;31071;51.478;5.710;2023-11-19T01:32:28;14.23;;;4.40;;
45338;SDS011;31071;51.478;5.710;2023-11-19T01:34:54;16.65;;;3.90;;
45338;SDS011;31071;51.478;5.710;2023-11-19T01:37:28;10.48;;;4.03;;
45338;SDS011;31071;51.478;5.710;2023-11-19T01:39:54;19.83;;;4.70;;
45338;SDS011;31071;51.478;5.710;2023-11-19T01:42:20;11.35;;;3.65;;
45338;SDS011;31071;51.478;5.710;2023-11-19T01:44:58;16.25;;;4.47;;
45338;SDS011;31071;51.478;5.710;2023-11-19T01:47:28;13.45;;;4.53;;
45338;SDS011;31071;51.478;5.710;2023-11-19T01:49:55;14.98;;;3.35;;
45338;SDS011;31071;51.478;5.710;2023-11-19T01:52:22;13.98;;;3.63;;
45338;SDS011;31071;51.478;5.710;2023-11-19T01:54:48;13.68;;;3.90;;
45338;SDS011;31071;51.478;5.710;2023-11-19T01:57:15;10.02;;;3.30;;
45338;SDS011;31071;51.478;5.710;2023-11-19T01:59:41;16.73;;;3.97;;
45338;SDS011;31071;51.478;5.710;2023-11-19T02:02:08;16.13;;;4.00;;
45338;SDS011;31071;51.478;5.710;2023-11-19T02:04:34;15.95;;;3.60;;
45338;SDS011;31071;51.478;5.710;2023-11-19T02:07:00;12.23;;;3.83;;
45338;SDS011;31071;51.478;5.710;2023-11-19T02:09:26;19.45;;;3.70;;
45338;SDS011;31071;51.478;5.710;2023-11-19T02:11:53;12.00;;;4.18;;
45338;SDS011;31071;51.478;5.710;2023-11-19T02:14:21;14.10;;;4.40;;
45338;SDS011;31071;51.478;5.710;2023-11-19T02:16:57;14.43;;;3.40;;
45338;SDS011;31071;51.478;5.710;2023-11-19T02:19:23;8.88;;;3.03;;
45338;SDS011;31071;51.478;5.710;2023-11-19T02:21:49;13.02;;;4.10;;
45338;SDS011;31071;51.478;5.710;2023-11-19T02:24:15;18.20;;;3.95;;
45338;SDS011;31071;51.478;5.710;2023-11-19T02:26:47;12.93;;;3.78;;
45338;SDS011;31071;51.478;5.710;2023-11-19T02:29:24;14.55;;;4.60;;
45338;SDS011;31071;51.478;5.710;2023-11-19T02:31:50;18.58;;;4.32;;
45338;SDS011;31071;51.478;5.710;2023-11-19T02:34:16;13.75;;;4.13;;
45338;SDS011;31071;51.478;5.710;2023-11-19T02:36:41;10.30;;;3.50;;
45338;SDS011;31071;51.478;5.710;2023-11-19T02:39:07;13.57;;;3.95;;
45338;SDS011;31071;51.478;5.710;2023-11-19T02:41:36;16.08;;;3.38;;
45338;SDS011;31071;51.478;5.710;2023-11-19T02:44:04;18.13;;;4.53;;
45338;SDS011;31071;51.478;5.710;2023-11-19T02:46:31;25.08;;;4.28;;
45338;SDS011;31071;51.478;5.710;2023-11-19T02:48:57;22.05;;;4.13;;
45338;SDS011;31071;51.478;5.710;2023-11-19T02:51:23;15.32;;;4.07;;
45338;SDS011;31071;51.478;5.710;2023-11-19T02:53:49;30.10;;;5.00;;
45338;SDS011;31071;51.478;5.710;2023-11-19T02:56:14;20.00;;;4.40;;
45338;SDS011;31071;51.478;5.710;2023-11-19T02:58:45;26.23;;;4.35;;
45338;SDS011;31071;51.478;5.710;2023-11-19T03:01:11;28.30;;;5.38;;
45338;SDS011;31071;51.478;5.710;2023-11-19T03:03:48;21.92;;;4.43;;
45338;SDS011;31071;51.478;5.710;2023-11-19T03:06:19;34.38;;;5.50;;
45338;SDS011;31071;51.478;5.710;2023-11-19T03:08:46;30.92;;;4.55;;
45338;SDS011;31071;51.478;5.710;2023-11-19T03:11:13;26.92;;;4.47;;
45338;SDS011;31071;51.478;5.710;2023-11-19T03:13:39;29.48;;;4.53;;
45338;SDS011;31071;51.478;5.710;2023-11-19T03:16:05;31.23;;;4.68;;
45338;SDS011;31071;51.478;5.710;2023-11-19T03:18:31;30.77;;;4.75;;
45338;SDS011;31071;51.478;5.710;2023-11-19T03:20:58;37.97;;;5.25;;
45338;SDS011;31071;51.478;5.710;2023-11-19T03:23:24;26.05;;;4.50;;
45338;SDS011;31071;51.478;5.710;2023-11-19T03:25:52;24.50;;;4.28;;
45338;SDS011;31071;51.478;5.710;2023-11-19T03:28:18;31.38;;;5.30;;
45338;SDS011;31071;51.478;5.710;2023-11-19T03:30:45;25.23;;;3.88;;
45338;SDS011;31071;51.478;5.710;2023-11-19T03:33:11;29.05;;;4.57;;
45338;SDS011;31071;51.478;5.710;2023-11-19T03:35:37;26.63;;;4.18;;
45338;SDS011;31071;51.478;5.710;2023-11-19T03:38:02;31.42;;;4.97;;
45338;SDS011;31071;51.478;5.710;2023-11-19T03:40:28;33.13;;;4.85;;
45338;SDS011;31071;51.478;5.710;2023-11-19T03:42:58;33.95;;;5.63;;
45338;SDS011;31071;51.478;5.710;2023-11-19T03:45:24;30.98;;;4.65;;
45338;SDS011;31071;51.478;5.710;2023-11-19T03:47:50;31.63;;;4.32;;
45338;SDS011;31071;51.478;5.710;2023-11-19T03:50:16;29.77;;;4.70;;
45338;SDS011;31071;51.478;5.710;2023-11-19T03:52:43;28.33;;;4.65;;
45338;SDS011;31071;51.478;5.710;2023-11-19T03:55:09;28.13;;;4.78;;
45338;SDS011;31071;51.478;5.710;2023-11-19T03:57:35;36.47;;;5.15;;
45338;SDS011;31071;51.478;5.710;2023-11-19T04:00:01;37.80;;;6.65;;
45338;SDS011;31071;51.478;5.710;2023-11-19T04:02:34;28.48;;;4.85;;
45338;SDS011;31071;51.478;5.710;2023-11-19T04:05:00;37.00;;;4.90;;
45338;SDS011;31071;51.478;5.710;2023-11-19T04:07:25;29.30;;;5.03;;
45338;SDS011;31071;51.478;5.710;2023-11-19T04:09:51;32.50;;;5.72;;
45338;SDS011;31071;51.478;5.710;2023-11-19T04:12:17;36.90;;;5.43;;
45338;SDS011;31071;51.478;5.710;2023-11-19T04:14:43;33.20;;;4.90;;
45338;SDS011;31071;51.478;5.710;2023-11-19T04:17:09;36.70;;;5.15;;
45338;SDS011;31071;51.478;5.710;2023-11-19T04:19:35;38.42;;;5.45;;
45338;SDS011;31071;51.478;5.710;2023-11-19T04:22:01;33.53;;;5.50;;
45338;SDS011;31071;51.478;5.710;2023-11-19T04:24:27;34.25;;;5.88;;
45338;SDS011;31071;51.478;5.710;2023-11-19T04:26:53;43.85;;;5.68;;
45338;SDS011;31071;51.478;5.710;2023-11-19T04:29:19;39.95;;;6.30;;
45338;SDS011;31071;51.478;5.710;2023-11-19T04:31:45;40.90;;;6.28;;
45338;SDS011;31071;51.478;5.710;2023-11-19T04:34:11;28.20;;;4.70;;
45338;SDS011;31071;51.478;5.710;2023-11-19T04:36:37;44.30;;;6.72;;
45338;SDS011;31071;51.478;5.710;2023-11-19T04:39:04;32.65;;;5.88;;
45338;SDS011;31071;51.478;5.710;2023-11-19T04:41:50;33.08;;;5.35;;
45338;SDS011;31071;51.478;5.710;2023-11-19T04:44:19;32.78;;;4.95;;
45338;SDS011;31071;51.478;5.710;2023-11-19T04:46:48;31.25;;;5.82;;
45338;SDS011;31071;51.478;5.710;2023-11-19T04:49:18;37.47;;;5.85;;
45338;SDS011;31071;51.478;5.710;2023-11-19T04:51:46;37.85;;;5.18;;
45338;SDS011;31071;51.478;5.710;2023-11-19T04:54:12;37.35;;;5.72;;
45338;SDS011;31071;51.478;5.710;2023-11-19T04:56:50;31.33;;;5.55;;
45338;SDS011;31071;51.478;5.710;2023-11-19T04:59:16;36.08;;;5.75;;
45338;SDS011;31071;51.478;5.710;2023-11-19T05:01:46;39.78;;;6.15;;
45338;SDS011;31071;51.478;5.710;2023-11-19T05:04:15;30.70;;;5.32;;
45338;SDS011;31071;51.478;5.710;2023-11-19T05:06:43;37.05;;;5.07;;
45338;SDS011;31071;51.478;5.710;2023-11-19T05:09:09;38.75;;;5.63;;
45338;SDS011;31071;51.478;5.710;2023-11-19T05:11:37;42.30;;;5.32;;
45338;SDS011;31071;51.478;5.710;2023-11-19T05:14:04;34.85;;;4.75;;
45338;SDS011;31071;51.478;5.710;2023-11-19T05:16:30;32.58;;;5.53;;
45338;SDS011;31071;51.478;5.710;2023-11-19T05:18:56;32.67;;;5.50;;
45338;SDS011;31071;51.478;5.710;2023-11-19T05:21:22;34.75;;;5.57;;
45338;SDS011;31071;51.478;5.710;2023-11-19T05:23:48;43.03;;;5.47;;
45338;SDS011;31071;51.478;5.710;2023-11-19T05:26:33;46.92;;;5.47;;
45338;SDS011;31071;51.478;5.710;2023-11-19T05:29:02;37.40;;;5.18;;
45338;SDS011;31071;51.478;5.710;2023-11-19T05:31:28;42.15;;;5.53;;
45338;SDS011;31071;51.478;5.710;2023-11-19T05:33:53;35.75;;;5.82;;
45338;SDS011;31071;51.478;5.710;2023-11-19T05:36:19;30.63;;;4.80;;
45338;SDS011;31071;51.478;5.710;2023-11-19T05:38:45;34.30;;;5.13;;
45338;SDS011;31071;51.478;5.710;2023-11-19T05:41:14;37.10;;;5.05;;
45338;SDS011;31071;51.478;5.710;2023-11-19T05:43:40;45.30;;;6.47;;
45338;SDS011;31071;51.478;5.710;2023-11-19T05:46:09;41.80;;;5.72;;
45338;SDS011;31071;51.478;5.710;2023-11-19T05:51:12;33.15;;;5.97;;
45338;SDS011;31071;51.478;5.710;2023-11-19T05:53:41;46.65;;;6.57;;
45338;SDS011;31071;51.478;5.710;2023-11-19T05:56:08;32.05;;;6.25;;
45338;SDS011;31071;51.478;5.710;2023-11-19T05:58:34;43.85;;;6.05;;
45338;SDS011;31071;51.478;5.710;2023-11-19T06:01:01;37.83;;;6.30;;
45338;SDS011;31071;51.478;5.710;2023-11-19T06:03:28;38.67;;;5.25;;
45338;SDS011;31071;51.478;5.710;2023-11-19T06:05:54;36.20;;;5.78;;
45338;SDS011;31071;51.478;5.710;2023-11-19T06:08:20;34.40;;;6.05;;
45338;SDS011;31071;51.478;5.710;2023-11-19T06:10:46;36.20;;;5.65;;
45338;SDS011;31071;51.478;5.710;2023-11-19T06:13:16;39.10;;;5.65;;
45338;SDS011;31071;51.478;5.710;2023-11-19T06:15:53;39.40;;;6.00;;
45338;SDS011;31071;51.478;5.710;2023-11-19T06:18:22;35.72;;;5.82;;
45338;SDS011;31071;51.478;5.710;2023-11-19T06:20:48;38.22;;;6.53;;
45338;SDS011;31071;51.478;5.710;2023-11-19T06:23:17;41.95;;;6.03;;
45338;SDS011;31071;51.478;5.710;2023-11-19T06:25:43;33.20;;;4.95;;
45338;SDS011;31071;51.478;5.710;2023-11-19T06:28:09;38.38;;;5.65;;
45338;SDS011;31071;51.478;5.710;2023-11-19T06:31:37;41.75;;;5.65;;
45338;SDS011;31071;51.478;5.710;2023-11-19T06:34:05;39.80;;;5.65;;
45338;SDS011;31071;51.478;5.710;2023-11-19T06:36:31;38.67;;;5.88;;
45338;SDS011;31071;51.478;5.710;2023-11-19T06:39:07;35.25;;;5.20;;
45338;SDS011;31071;51.478;5.710;2023-11-19T06:41:44;44.10;;;6.30;;
45338;SDS011;31071;51.478;5.710;2023-11-19T06:44:11;42.72;;;5.57;;
45338;SDS011;31071;51.478;5.710;2023-11-19T06:46:37;48.38;;;6.15;;
45338;SDS011;31071;51.478;5.710;2023-11-19T06:49:06;39.00;;;5.65;;
45338;SDS011;31071;51.478;5.710;2023-11-19T06:51:35;43.63;;;5.97;;
45338;SDS011;31071;51.478;5.710;2023-11-19T06:54:01;36.63;;;5.68;;
45338;SDS011;31071;51.478;5.710;2023-11-19T06:56:26;42.55;;;5.47;;
45338;SDS011;31071;51.478;5.710;2023-11-19T06:58:52;34.20;;;4.43;;
45338;SDS011;31071;51.478;5.710;2023-11-19T07:01:21;31.85;;;5.70;;
45338;SDS011;31071;51.478;5.710;2023-11-19T07:03:47;39.55;;;5.32;;
45338;SDS011;31071;51.478;5.710;2023-11-19T07:06:14;33.60;;;5.60;;
45338;SDS011;31071;51.478;5.710;2023-11-19T07:08:46;41.08;;;5.97;;
45338;SDS011;31071;51.478;5.710;2023-11-19T07:14:07;33.00;;;5.43;;
45338;SDS011;31071;51.478;5.710;2023-11-19T07:16:33;32.53;;;5.70;;
45338;SDS011;31071;51.478;5.710;2023-11-19T07:19:00;38.42;;;5.28;;
45338;SDS011;31071;51.478;5.710;2023-11-19T07:21:26;37.65;;;4.70;;
45338;SDS011;31071;51.478;5.710;2023-11-19T07:23:54;33.67;;;5.57;;
45338;SDS011;31071;51.478;5.710;2023-11-19T07:26:21;46.03;;;5.90;;
45338;SDS011;31071;51.478;5.710;2023-11-19T07:28:47;39.28;;;5.97;;
45338;SDS011;31071;51.478;5.710;2023-11-19T07:31:14;38.03;;;5.07;;
45338;SDS011;31071;51.478;5.710;2023-11-19T07:33:58;39.83;;;5.00;;
45338;SDS011;31071;51.478;5.710;2023-11-19T07:36:48;38.25;;;4.63;;
45338;SDS011;31071;51.478;5.710;2023-11-19T07:39:29;42.67;;;5.25;;
45338;SDS011;31071;51.478;5.710;2023-11-19T07:41:59;39.17;;;5.93;;
45338;SDS011;31071;51.478;5.710;2023-11-19T07:45:02;33.70;;;5.75;;
45338;SDS011;31071;51.478;5.710;2023-11-19T07:47:55;36.50;;;5.80;;
45338;SDS011;31071;51.478;5.710;2023-11-19T07:50:36;39.55;;;5.25;;
45338;SDS011;31071;51.478;5.710;2023-11-19T07:53:07;42.38;;;6.22;;
45338;SDS011;31071;51.478;5.710;2023-11-19T07:55:33;40.80;;;5.82;;
45338;SDS011;31071;51.478;5.710;2023-11-19T07:57:59;34.45;;;4.95;;
45338;SDS011;31071;51.478;5.710;2023-11-19T08:00:26;49.08;;;6.22;;
45338;SDS011;31071;51.478;5.710;2023-11-19T08:02:58;39.83;;;5.63;;
45338;SDS011;31071;51.478;5.710;2023-11-19T08:05:24;39.22;;;5.32;;
45338;SDS011;31071;51.478;5.710;2023-11-19T08:10:26;46.10;;;6.57;;
45338;SDS011;31071;51.478;5.710;2023-11-19T08:12:51;39.25;;;5.78;;
45338;SDS011;31071;51.478;5.710;2023-11-19T08:15:17;38.70;;;6.13;;
45338;SDS011;31071;51.478;5.710;2023-11-19T08:17:43;41.03;;;5.43;;
45338;SDS011;31071;51.478;5.710;2023-11-19T08:20:09;40.33;;;5.35;;
45338;SDS011;31071;51.478;5.710;2023-11-19T08:22:36;30.23;;;5.15;;
45338;SDS011;31071;51.478;5.710;2023-11-19T08:25:03;40.67;;;5.68;;
45338;SDS011;31071;51.478;5.710;2023-11-19T08:27:31;40.15;;;6.18;;
45338;SDS011;31071;51.478;5.710;2023-11-19T08:29:57;34.55;;;5.35;;
45338;SDS011;31071;51.478;5.710;2023-11-19T08:32:26;31.60;;;6.35;;
45338;SDS011;31071;51.478;5.710;2023-11-19T08:34:52;39.55;;;5.68;;
45338;SDS011;31071;51.478;5.710;2023-11-19T08:37:19;34.80;;;5.63;;
45338;SDS011;31071;51.478;5.710;2023-11-19T08:39:49;44.35;;;5.35;;
45338;SDS011;31071;51.478;5.710;2023-11-19T08:42:16;32.38;;;5.55;;
45338;SDS011;31071;51.478;5.710;2023-11-19T08:44:42;37.05;;;5.45;;
45338;SDS011;31071;51.478;5.710;2023-11-19T08:47:12;53.83;;;9.05;;
45338;SDS011;31071;51.478;5.710;2023-11-19T08:49:39;34.03;;;4.72;;
45338;SDS011;31071;51.478;5.710;2023-11-19T08:52:05;38.92;;;7.25;;
45338;SDS011;31071;51.478;5.710;2023-11-19T08:54:34;40.90;;;5.57;;
45338;SDS011;31071;51.478;5.710;2023-11-19T08:56:59;33.55;;;5.45;;
45338;SDS011;31071;51.478;5.710;2023-11-19T08:59:25;36.92;;;5.47;;
45338;SDS011;31071;51.478;5.710;2023-11-19T09:01:51;30.83;;;5.43;;
45338;SDS011;31071;51.478;5.710;2023-11-19T09:04:17;33.53;;;5.18;;
45338;SDS011;31071;51.478;5.710;2023-11-19T09:06:43;34.42;;;5.05;;
45338;SDS011;31071;51.478;5.710;2023-11-19T09:09:09;37.17;;;5.90;;
45338;SDS011;31071;51.478;5.710;2023-11-19T09:11:35;33.22;;;5.43;;
45338;SDS011;31071;51.478;5.710;2023-11-19T09:14:02;33.70;;;5.80;;
45338;SDS011;31071;51.478;5.710;2023-11-19T09:16:28;35.33;;;5.70;;
45338;SDS011;31071;51.478;5.710;2023-11-19T09:18:54;38.55;;;5.82;;
45338;SDS011;31071;51.478;5.710;2023-11-19T09:21:20;35.97;;;6.15;;
45338;SDS011;31071;51.478;5.710;2023-11-19T09:23:45;30.35;;;5.13;;
45338;SDS011;31071;51.478;5.710;2023-11-19T09:26:13;46.53;;;6.18;;
45338;SDS011;31071;51.478;5.710;2023-11-19T09:28:39;38.85;;;5.95;;
45338;SDS011;31071;51.478;5.710;2023-11-19T09:31:14;30.45;;;4.68;;
45338;SDS011;31071;51.478;5.710;2023-11-19T09:33:43;36.22;;;6.45;;
45338;SDS011;31071;51.478;5.710;2023-11-19T09:36:13;34.85;;;5.43;;
45338;SDS011;31071;51.478;5.710;2023-11-19T09:38:40;35.40;;;5.28;;
45338;SDS011;31071;51.478;5.710;2023-11-19T09:41:06;35.97;;;5.93;;
45338;SDS011;31071;51.478;5.710;2023-11-19T09:43:35;28.65;;;4.97;;
45338;SDS011;31071;51.478;5.710;2023-11-19T09:46:04;31.30;;;5.05;;
45338;SDS011;31071;51.478;5.710;2023-11-19T09:48:39;33.13;;;5.17;;
45338;SDS011;31071;51.478;5.710;2023-11-19T09:51:08;35.92;;;5.07;;
45338;SDS011;31071;51.478;5.710;2023-11-19T09:53:35;34.42;;;5.20;;
45338;SDS011;31071;51.478;5.710;2023-11-19T09:56:11;32.92;;;5.68;;
45338;SDS011;31071;51.478;5.710;2023-11-19T09:58:42;36.88;;;5.07;;
45338;SDS011;31071;51.478;5.710;2023-11-19T10:01:11;31.42;;;5.55;;
45338;SDS011;31071;51.478;5.710;2023-11-19T10:03:39;31.25;;;4.82;;
45338;SDS011;31071;51.478;5.710;2023-11-19T10:06:09;28.50;;;5.03;;
45338;SDS011;31071;51.478;5.710;2023-11-19T10:08:42;31.30;;;4.60;;
45338;SDS011;31071;51.478;5.710;2023-11-19T10:13:38;29.33;;;5.07;;
45338;SDS011;31071;51.478;5.710;2023-11-19T10:16:07;32.97;;;5.35;;
45338;SDS011;31071;51.478;5.710;2023-11-19T10:18:34;29.20;;;5.25;;
45338;SDS011;31071;51.478;5.710;2023-11-19T10:21:04;25.70;;;4.85;;
45338;SDS011;31071;51.478;5.710;2023-11-19T10:23:56;32.50;;;5.45;;
45338;SDS011;31071;51.478;5.710;2023-11-19T10:26:26;34.05;;;4.78;;
45338;SDS011;31071;51.478;5.710;2023-11-19T10:28:52;31.60;;;5.10;;
45338;SDS011;31071;51.478;5.710;2023-11-19T10:31:36;27.65;;;4.28;;
45338;SDS011;31071;51.478;5.710;2023-11-19T10:34:02;27.77;;;5.35;;
45338;SDS011;31071;51.478;5.710;2023-11-19T10:36:38;31.35;;;5.30;;
45338;SDS011;31071;51.478;5.710;2023-11-19T10:39:07;32.53;;;5.40;;
45338;SDS011;31071;51.478;5.710;2023-11-19T10:41:34;21.98;;;4.45;;
45338;SDS011;31071;51.478;5.710;2023-11-19T10:47:05;27.48;;;4.80;;
45338;SDS011;31071;51.478;5.710;2023-11-19T10:50:18;30.92;;;5.63;;
45338;SDS011;31071;51.478;5.710;2023-11-19T10:52:20;32.95;;;4.53;;
45338;SDS011;31071;51.478;5.710;2023-11-19T10:54:50;30.25;;;5.90;;
45338;SDS011;31071;51.478;5.710;2023-11-19T10:57:20;30.88;;;4.68;;
45338;SDS011;31071;51.478;5.710;2023-11-19T10:59:50;26.45;;;4.78;;
45338;SDS011;31071;51.478;5.710;2023-11-19T11:02:41;22.75;;;4.18;;
45338;SDS011;31071;51.478;5.710;2023-11-19T11:05:12;32.75;;;4.53;;
45338;SDS011;31071;51.478;5.710;2023-11-19T11:07:40;24.05;;;4.60;;
45338;SDS011;31071;51.478;5.710;2023-11-19T11:10:08;29.13;;;4.47;;
45338;SDS011;31071;51.478;5.710;2023-11-19T11:12:37;23.00;;;4.20;;
45338;SDS011;31071;51.478;5.710;2023-11-19T11:15:04;23.05;;;4.43;;
45338;SDS011;31071;51.478;5.710;2023-11-19T11:17:32;23.00;;;4.28;;
45338;SDS011;31071;51.478;5.710;2023-11-19T11:19:59;30.08;;;4.65;;
45338;SDS011;31071;51.478;5.710;2023-11-19T11:22:24;20.77;;;4.82;;
45338;SDS011;31071;51.478;5.710;2023-11-19T11:25:15;26.65;;;4.40;;
45338;SDS011;31071;51.478;5.710;2023-11-19T11:27:59;28.33;;;4.40;;
45338;SDS011;31071;51.478;5.710;2023-11-19T11:30:39;26.50;;;4.55;;
45338;SDS011;31071;51.478;5.710;2023-11-19T11:33:44;27.50;;;4.32;;
45338;SDS011;31071;51.478;5.710;2023-11-19T11:36:27;34.38;;;5.18;;
45338;SDS011;31071;51.478;5.710;2023-11-19T11:38:56;21.42;;;4.28;;
45338;SDS011;31071;51.478;5.710;2023-11-19T11:41:25;30.02;;;4.88;;
45338;SDS011;31071;51.478;5.710;2023-11-19T11:43:52;29.20;;;4.13;;
45338;SDS011;31071;51.478;5.710;2023-11-19T11:49:01;27.77;;;4.07;;
45338;SDS011;31071;51.478;5.710;2023-11-19T11:59:47;21.13;;;4.63;;
45338;SDS011;31071;51.478;5.710;2023-11-19T12:02:14;28.27;;;3.95;;
45338;SDS011;31071;51.478;5.710;2023-11-19T12:04:42;24.27;;;4.53;;
45338;SDS011;31071;51.478;5.710;2023-11-19T12:07:12;30.10;;;4.30;;
45338;SDS011;31071;51.478;5.710;2023-11-19T12:09:45;25.65;;;3.72;;
45338;SDS011;31071;51.478;5.710;2023-11-19T12:12:20;25.77;;;4.35;;
45338;SDS011;31071;51.478;5.710;2023-11-19T12:17:48;21.15;;;3.70;;
45338;SDS011;31071;51.478;5.710;2023-11-19T12:20:14;22.95;;;3.80;;
45338;SDS011;31071;51.478;5.710;2023-11-19T12:22:42;21.25;;;3.95;;
45338;SDS011;31071;51.478;5.710;2023-11-19T12:25:18;25.98;;;4.28;;
45338;SDS011;31071;51.478;5.710;2023-11-19T12:27:50;28.27;;;4.55;;
45338;SDS011;31071;51.478;5.710;2023-11-19T12:30:23;28.67;;;4.85;;
45338;SDS011;31071;51.478;5.710;2023-11-19T12:32:55;26.48;;;4.45;;
45338;SDS011;31071;51.478;5.710;2023-11-19T12:35:21;28.45;;;4.40;;
45338;SDS011;31071;51.478;5.710;2023-11-19T12:41:11;26.10;;;3.95;;
45338;SDS011;31071;51.478;5.710;2023-11-19T12:44:32;25.70;;;4.30;;
45338;SDS011;31071;51.478;5.710;2023-11-19T12:47:06;22.42;;;4.13;;
45338;SDS011;31071;51.478;5.710;2023-11-19T12:49:32;34.00;;;4.72;;
45338;SDS011;31071;51.478;5.710;2023-11-19T12:52:19;27.05;;;4.25;;
45338;SDS011;31071;51.478;5.710;2023-11-19T12:58:35;24.67;;;4.03;;
45338;SDS011;31071;51.478;5.710;2023-11-19T13:01:02;25.98;;;4.47;;
45338;SDS011;31071;51.478;5.710;2023-11-19T13:03:32;28.85;;;4.70;;
45338;SDS011;31071;51.478;5.710;2023-11-19T13:06:04;28.95;;;4.38;;
45338;SDS011;31071;51.478;5.710;2023-11-19T13:08:39;26.95;;;4.25;;
45338;SDS011;31071;51.478;5.710;2023-11-19T13:17:34;24.63;;;4.38;;
45338;SDS011;31071;51.478;5.710;2023-11-19T13:19:59;26.83;;;4.70;;
45338;SDS011;31071;51.478;5.710;2023-11-19T13:22:25;26.85;;;4.22;;
45338;SDS011;31071;51.478;5.710;2023-11-19T13:24:51;28.10;;;4.13;;
45338;SDS011;31071;51.478;5.710;2023-11-19T13:27:16;26.02;;;4.50;;
45338;SDS011;31071;51.478;5.710;2023-11-19T13:29:48;24.98;;;3.85;;
45338;SDS011;31071;51.478;5.710;2023-11-19T13:32:13;30.38;;;4.78;;
45338;SDS011;31071;51.478;5.710;2023-11-19T13:34:39;25.60;;;4.22;;
45338;SDS011;31071;51.478;5.710;2023-11-19T13:37:05;30.77;;;5.68;;
45338;SDS011;31071;51.478;5.710;2023-11-19T13:39:31;32.47;;;5.18;;
45338;SDS011;31071;51.478;5.710;2023-11-19T13:41:56;34.17;;;5.25;;
45338;SDS011;31071;51.478;5.710;2023-11-19T13:44:22;30.15;;;4.15;;
45338;SDS011;31071;51.478;5.710;2023-11-19T13:47:00;25.98;;;3.83;;
45338;SDS011;31071;51.478;5.710;2023-11-19T13:53:40;18.03;;;4.50;;
45338;SDS011;31071;51.478;5.710;2023-11-19T13:59:48;18.98;;;3.63;;
45338;SDS011;31071;51.478;5.710;2023-11-19T14:02:23;27.25;;;4.85;;
45338;SDS011;31071;51.478;5.710;2023-11-19T14:05:30;28.23;;;3.85;;
45338;SDS011;31071;51.478;5.710;2023-11-19T14:12:43;29.60;;;4.63;;
45338;SDS011;31071;51.478;5.710;2023-11-19T14:15:09;23.17;;;4.57;;
45338;SDS011;31071;51.478;5.710;2023-11-19T14:17:37;19.88;;;3.72;;
45338;SDS011;31071;51.478;5.710;2023-11-19T14:20:04;24.17;;;3.97;;
45338;SDS011;31071;51.478;5.710;2023-11-19T14:22:40;26.77;;;4.30;;
45338;SDS011;31071;51.478;5.710;2023-11-19T14:25:07;27.35;;;5.90;;
45338;SDS011;31071;51.478;5.710;2023-11-19T14:27:40;22.63;;;3.70;;
45338;SDS011;31071;51.478;5.710;2023-11-19T14:30:07;23.95;;;4.60;;
45338;SDS011;31071;51.478;5.710;2023-11-19T14:32:36;23.85;;;4.50;;
45338;SDS011;31071;51.478;5.710;2023-11-19T14:35:02;29.45;;;4.88;;
45338;SDS011;31071;51.478;5.710;2023-11-19T14:37:29;28.45;;;3.85;;
45338;SDS011;31071;51.478;5.710;2023-11-19T14:40:00;21.02;;;3.70;;
45338;SDS011;31071;51.478;5.710;2023-11-19T14:42:36;23.30;;;3.60;;
45338;SDS011;31071;51.478;5.710;2023-11-19T14:45:08;18.77;;;3.53;;
45338;SDS011;31071;51.478;5.710;2023-11-19T14:47:45;18.27;;;3.78;;
45338;SDS011;31071;51.478;5.710;2023-11-19T14:50:26;21.60;;;5.18;;
45338;SDS011;31071;51.478;5.710;2023-11-19T14:52:51;30.55;;;4.68;;
45338;SDS011;31071;51.478;5.710;2023-11-19T14:55:17;24.58;;;4.03;;
45338;SDS011;31071;51.478;5.710;2023-11-19T14:57:43;20.33;;;3.60;;
45338;SDS011;31071;51.478;5.710;2023-11-19T15:00:09;23.10;;;4.32;;
45338;SDS011;31071;51.478;5.710;2023-11-19T15:02:56;26.45;;;6.22;;
45338;SDS011;31071;51.478;5.710;2023-11-19T15:05:28;25.42;;;8.45;;
45338;SDS011;31071;51.478;5.710;2023-11-19T15:08:09;21.48;;;4.28;;
45338;SDS011;31071;51.478;5.710;2023-11-19T15:10:50;23.48;;;4.88;;
45338;SDS011;31071;51.478;5.710;2023-11-19T15:13:49;33.05;;;4.05;;
45338;SDS011;31071;51.478;5.710;2023-11-19T15:16:59;32.63;;;4.72;;
45338;SDS011;31071;51.478;5.710;2023-11-19T15:23:07;24.20;;;5.07;;
45338;SDS011;31071;51.478;5.710;2023-11-19T15:25:34;33.53;;;4.85;;
45338;SDS011;31071;51.478;5.710;2023-11-19T15:28:23;26.35;;;4.72;;
45338;SDS011;31071;51.478;5.710;2023-11-19T15:30:52;28.77;;;4.82;;
45338;SDS011;31071;51.478;5.710;2023-11-19T15:33:26;25.05;;;5.07;;
45338;SDS011;31071;51.478;5.710;2023-11-19T15:35:58;27.52;;;5.10;;
45338;SDS011;31071;51.478;5.710;2023-11-19T15:38:34;34.05;;;5.88;;
45338;SDS011;31071;51.478;5.710;2023-11-19T15:41:32;42.47;;;5.88;;
45338;SDS011;31071;51.478;5.710;2023-11-19T15:43:58;29.70;;;5.57;;
45338;SDS011;31071;51.478;5.710;2023-11-19T15:46:23;27.15;;;5.47;;
45338;SDS011;31071;51.478;5.710;2023-11-19T15:48:49;38.60;;;6.05;;